Time;durP1;ratioP1;P1;durP2;ratioP2;P2;SDS_P1;SDS_P2;PMS_P1;PMS_P2;Temp;Humidity;BMP_temperature;BMP_pressure;BME280_temperature;BME280_humidity;BME280_pressure;Samples;Min_cycle;Max_cycle;Signal;HPM_P1;HPM_P2
2023/11/06 00:00:17;;;;;;;6.17;2.70;;;9.40;99.90;;;;;;5079650;28;20214;-62
2023/11/06 00:02:46;;;;;;;6.63;2.33;;;9.40;99.90;;;;;;5081171;28;20227;-61
2023/11/06 00:05:14;;;;;;;4.47;1.83;;;9.40;99.90;;;;;;5063636;28;20223;-61
2023/11/06 00:07:43;;;;;;;7.27;1.90;;;9.40;99.90;;;;;;5079961;28;20246;-61
2023/11/06 00:10:12;;;;;;;3.40;1.70;;;9.30;99.90;;;;;;5080497;28;20204;-62
2023/11/06 00:12:41;;;;;;;4.53;1.67;;;9.30;99.90;;;;;;5082247;28;20227;-61
2023/11/06 00:15:13;;;;;;;5.13;1.90;;;9.30;99.90;;;;;;5080109;28;20216;-62
2023/11/06 00:17:42;;;;;;;3.27;1.60;;;9.30;99.90;;;;;;5080684;28;20305;-62
2023/11/06 00:20:11;;;;;;;3.67;1.80;;;9.30;99.90;;;;;;5082532;28;20219;-63
2023/11/06 00:22:40;;;;;;;4.63;1.70;;;9.30;99.90;;;;;;5079152;28;20184;-61
2023/11/06 00:25:08;;;;;;;1.90;1.40;;;9.30;99.90;;;;;;5084605;28;20204;-61
2023/11/06 00:27:38;;;;;;;6.43;2.10;;;9.30;99.90;;;;;;5083213;28;20251;-62
2023/11/06 00:30:08;;;;;;;3.33;1.60;;;9.30;99.90;;;;;;5083525;28;20306;-62
2023/11/06 00:32:38;;;;;;;2.90;1.53;;;9.30;99.90;;;;;;5086034;28;20225;-62
2023/11/06 00:35:09;;;;;;;5.13;1.40;;;9.20;99.90;;;;;;5081082;28;20223;-64
2023/11/06 00:37:37;;;;;;;4.57;1.63;;;9.20;99.90;;;;;;5080710;28;20199;-61
2023/11/06 00:40:09;;;;;;;2.60;1.43;;;9.20;99.90;;;;;;5082825;28;20192;-62
2023/11/06 00:42:38;;;;;;;4.00;1.30;;;9.20;99.90;;;;;;5086185;28;20285;-62
2023/11/06 00:45:08;;;;;;;3.60;1.60;;;9.20;99.90;;;;;;5081158;28;20231;-63
2023/11/06 00:47:37;;;;;;;1.83;1.20;;;9.30;99.90;;;;;;5084550;28;20215;-62
2023/11/06 00:50:07;;;;;;;3.73;1.57;;;9.30;99.90;;;;;;5089310;28;20242;-63
2023/11/06 00:52:36;;;;;;;3.03;1.30;;;9.20;99.90;;;;;;5085169;28;20200;-61
2023/11/06 00:55:04;;;;;;;3.03;1.53;;;9.20;99.90;;;;;;5084734;28;20219;-62
2023/11/06 00:57:33;;;;;;;6.40;1.90;;;9.10;99.90;;;;;;5085877;28;20222;-62
2023/11/06 01:00:04;;;;;;;5.23;1.63;;;9.10;99.90;;;;;;5085238;28;20219;-62
2023/11/06 01:02:32;;;;;;;7.20;1.50;;;9.10;99.90;;;;;;5082943;28;20226;-62
2023/11/06 01:05:02;;;;;;;1.63;1.30;;;9.10;99.90;;;;;;5082993;28;20224;-62
2023/11/06 01:07:31;;;;;;;1.93;1.40;;;9.10;99.90;;;;;;5085663;28;20204;-62
2023/11/06 01:09:59;;;;;;;2.67;1.33;;;9.10;99.90;;;;;;5082930;28;20692;-62
2023/11/06 01:12:27;;;;;;;3.53;1.50;;;9.20;99.90;;;;;;5087399;28;20272;-62
2023/11/06 01:14:55;;;;;;;4.60;2.10;;;9.20;99.90;;;;;;5083444;28;20223;-62
2023/11/06 01:17:25;;;;;;;2.77;1.63;;;9.30;99.90;;;;;;5079967;28;20219;-62
2023/11/06 01:19:53;;;;;;;5.43;2.03;;;9.30;99.90;;;;;;5083001;28;20281;-62
2023/11/06 01:22:23;;;;;;;9.93;2.00;;;9.30;99.90;;;;;;5088890;28;20218;-62
2023/11/06 01:25:07;;;;;;;3.33;2.07;;;9.40;99.90;;;;;;5066458;28;20203;-63
2023/11/06 01:27:35;;;;;;;8.43;2.20;;;9.40;99.90;;;;;;5063662;28;21294;-63
2023/11/06 01:30:04;;;;;;;3.47;1.80;;;9.40;99.90;;;;;;5065604;28;20220;-63
2023/11/06 01:32:32;;;;;;;3.33;1.60;;;9.40;99.90;;;;;;5072568;28;20219;-63
2023/11/06 01:35:00;;;;;;;4.87;1.87;;;9.50;99.90;;;;;;5079093;28;21114;-62
2023/11/06 01:37:30;;;;;;;6.17;1.63;;;9.40;99.90;;;;;;5062756;28;20242;-62
2023/11/06 01:39:58;;;;;;;2.83;1.53;;;9.50;99.90;;;;;;5054277;28;20212;-62
2023/11/06 01:42:27;;;;;;;2.67;1.80;;;9.50;99.90;;;;;;5045810;28;20249;-63
2023/11/06 01:44:57;;;;;;;1.93;1.23;;;9.40;99.90;;;;;;5060421;28;20227;-62
2023/11/06 01:47:26;;;;;;;2.67;1.50;;;9.40;99.90;;;;;;5062408;28;20219;-62
2023/11/06 01:49:54;;;;;;;3.97;1.73;;;9.40;99.90;;;;;;5063196;28;20204;-62
2023/11/06 01:52:23;;;;;;;1.70;1.40;;;9.40;99.90;;;;;;5060054;28;20311;-63
2023/11/06 01:54:53;;;;;;;7.43;1.57;;;9.40;99.90;;;;;;5062465;28;20579;-63
2023/11/06 01:57:22;;;;;;;4.73;1.80;;;9.40;99.90;;;;;;5066612;28;20896;-63
2023/11/06 01:59:50;;;;;;;5.53;1.80;;;9.40;99.90;;;;;;5062787;28;20341;-62
2023/11/06 02:02:20;;;;;;;4.20;1.93;;;9.40;99.90;;;;;;5062006;28;20880;-63
2023/11/06 02:04:49;;;;;;;7.63;1.80;;;9.40;99.90;;;;;;5061343;28;20686;-62
2023/11/06 02:07:18;;;;;;;8.07;2.20;;;9.40;99.90;;;;;;5062754;28;20236;-63
2023/11/06 02:09:46;;;;;;;7.30;1.90;;;9.40;99.90;;;;;;5066665;28;20220;-63
2023/11/06 02:12:16;;;;;;;4.57;1.97;;;9.40;99.90;;;;;;5062571;28;20247;-63
2023/11/06 02:14:52;;;;;;;3.60;1.67;;;9.40;99.90;;;;;;5068572;28;20566;-62
2023/11/06 02:17:20;;;;;;;5.13;1.70;;;9.50;99.90;;;;;;5062773;28;20227;-63
2023/11/06 02:19:49;;;;;;;3.70;1.50;;;9.50;99.90;;;;;;5065304;28;20192;-62
2023/11/06 02:22:19;;;;;;;4.43;1.90;;;9.40;99.90;;;;;;5065026;28;20998;-63
2023/11/06 02:24:50;;;;;;;3.33;1.60;;;9.40;99.90;;;;;;5064523;28;20208;-63
2023/11/06 02:27:19;;;;;;;2.13;1.90;;;9.40;99.90;;;;;;5062730;28;20239;-63
2023/11/06 02:29:47;;;;;;;5.03;2.03;;;9.40;99.90;;;;;;5064269;28;20251;-63
2023/11/06 02:32:16;;;;;;;4.70;1.63;;;9.40;99.90;;;;;;5064538;28;20219;-63
2023/11/06 02:34:45;;;;;;;4.57;1.67;;;9.40;99.90;;;;;;5059046;28;20208;-63
2023/11/06 02:37:13;;;;;;;4.13;1.30;;;9.40;99.90;;;;;;5066665;28;20199;-63
2023/11/06 02:39:42;;;;;;;3.13;1.40;;;9.40;99.90;;;;;;5064507;28;20299;-63
2023/11/06 02:42:11;;;;;;;3.87;1.60;;;9.40;99.90;;;;;;5064457;28;20223;-63
2023/11/06 02:44:39;;;;;;;4.03;1.30;;;9.40;99.90;;;;;;5061398;28;20215;-63
2023/11/06 02:47:09;;;;;;;3.27;1.53;;;9.40;99.90;;;;;;5067829;28;20231;-63
2023/11/06 02:49:37;;;;;;;2.17;1.40;;;9.40;99.90;;;;;;5082863;28;20748;-62
2023/11/06 02:52:05;;;;;;;4.57;1.53;;;9.40;99.90;;;;;;5066131;28;20190;-63
2023/11/06 02:54:33;;;;;;;5.20;1.83;;;9.40;99.90;;;;;;5062177;28;20227;-63
2023/11/06 02:57:03;;;;;;;1.30;1.20;;;9.40;99.90;;;;;;5062778;28;20230;-63
2023/11/06 02:59:34;;;;;;;2.73;1.40;;;9.30;99.90;;;;;;5064194;28;20241;-63
2023/11/06 03:02:02;;;;;;;3.70;1.47;;;9.30;99.90;;;;;;5065069;28;20306;-63
2023/11/06 03:04:32;;;;;;;3.00;1.40;;;9.30;99.90;;;;;;5065597;28;20223;-64
2023/11/06 03:07:00;;;;;;;2.70;1.60;;;9.30;99.90;;;;;;5067871;28;20950;-63
2023/11/06 03:09:30;;;;;;;5.23;1.93;;;9.30;99.90;;;;;;5060876;28;20765;-63
2023/11/06 03:11:58;;;;;;;4.47;2.00;;;9.20;99.90;;;;;;5064598;28;20590;-63
2023/11/06 03:14:27;;;;;;;9.47;2.23;;;9.20;99.90;;;;;;5057992;28;20243;-63
2023/11/06 03:16:56;;;;;;;6.33;2.00;;;9.20;99.90;;;;;;5061590;28;20593;-63
2023/11/06 03:19:25;;;;;;;8.30;2.40;;;9.20;99.90;;;;;;5059333;28;20202;-63
2023/11/06 03:21:53;;;;;;;5.07;2.50;;;9.20;99.90;;;;;;5067113;28;20216;-63
2023/11/06 03:24:21;;;;;;;9.63;3.43;;;9.20;99.90;;;;;;5060287;28;20215;-63
2023/11/06 03:26:49;;;;;;;7.30;2.70;;;9.20;99.90;;;;;;5066151;28;20230;-63
2023/11/06 03:29:18;;;;;;;8.33;3.27;;;9.30;99.90;;;;;;5062527;28;20212;-63
2023/11/06 03:31:46;;;;;;;15.07;3.57;;;9.30;99.90;;;;;;5059033;28;20197;-62
2023/11/06 03:34:16;;;;;;;5.27;2.83;;;9.30;99.90;;;;;;5062236;28;20286;-63
2023/11/06 03:36:45;;;;;;;9.90;3.03;;;9.30;99.90;;;;;;5060483;28;20223;-63
2023/11/06 03:39:14;;;;;;;12.60;3.63;;;9.30;99.90;;;;;;5050831;28;20243;-63
2023/11/06 03:41:43;;;;;;;13.73;3.70;;;9.40;99.90;;;;;;5057406;28;20215;-63
2023/11/06 03:44:12;;;;;;;8.90;3.27;;;9.40;99.90;;;;;;5061517;28;20598;-63
2023/11/06 03:46:40;;;;;;;11.70;3.57;;;9.40;99.90;;;;;;5062362;28;20200;-63
2023/11/06 03:49:09;;;;;;;7.73;3.00;;;9.40;99.90;;;;;;5062593;28;20192;-63
2023/11/06 03:51:39;;;;;;;15.77;3.37;;;9.40;99.90;;;;;;5063090;28;20212;-63
2023/11/06 03:54:07;;;;;;;14.30;3.17;;;9.40;99.90;;;;;;5060815;28;20219;-63
2023/11/06 03:56:35;;;;;;;10.70;3.23;;;9.40;99.90;;;;;;5063368;28;20232;-63
2023/11/06 03:59:04;;;;;;;10.53;3.60;;;9.40;99.90;;;;;;5061304;28;20690;-63
2023/11/06 04:01:36;;;;;;;18.70;4.03;;;9.50;99.90;;;;;;5064012;28;20198;-63
2023/11/06 04:04:04;;;;;;;16.60;4.10;;;9.50;99.90;;;;;;5082573;28;20336;-63
2023/11/06 04:06:38;;;;;;;14.30;4.13;;;9.50;99.90;;;;;;5078420;28;20730;-63
2023/11/06 04:09:07;;;;;;;12.73;3.67;;;9.50;99.90;;;;;;5081757;28;20631;-63
2023/11/06 04:11:35;;;;;;;13.33;4.00;;;9.50;99.90;;;;;;5083020;28;20223;-63
2023/11/06 04:14:03;;;;;;;16.13;3.60;;;9.50;99.90;;;;;;5082647;28;20226;-63
2023/11/06 04:16:34;;;;;;;11.87;3.33;;;9.50;99.90;;;;;;5083535;28;20219;-63
2023/11/06 04:19:02;;;;;;;17.97;3.97;;;9.40;99.90;;;;;;5086069;28;20214;-63
2023/11/06 04:21:30;;;;;;;15.97;3.30;;;9.40;99.90;;;;;;5084393;28;20219;-63
2023/11/06 04:24:00;;;;;;;10.80;3.53;;;9.40;99.90;;;;;;5086096;28;20223;-63
2023/11/06 04:26:28;;;;;;;11.77;3.93;;;9.30;99.90;;;;;;5083454;28;20712;-63
2023/11/06 04:28:58;;;;;;;20.07;2.93;;;9.30;99.90;;;;;;5083177;28;20246;-63
2023/11/06 04:31:27;;;;;;;17.63;3.20;;;9.30;99.90;;;;;;5088769;28;20184;-63
2023/11/06 04:33:56;;;;;;;18.07;3.53;;;9.20;99.90;;;;;;5080862;28;20617;-63
2023/11/06 04:36:24;;;;;;;15.43;3.00;;;9.10;99.90;;;;;;5086400;28;20226;-63
2023/11/06 04:38:52;;;;;;;13.73;3.70;;;9.10;99.90;;;;;;5087019;28;20226;-63
2023/11/06 04:41:22;;;;;;;17.83;3.20;;;9.10;99.90;;;;;;5082891;28;20215;-63
2023/11/06 04:43:50;;;;;;;8.40;2.80;;;9.00;99.90;;;;;;5085302;28;20579;-63
2023/11/06 04:46:18;;;;;;;14.43;3.37;;;9.00;99.90;;;;;;5084594;28;20210;-63
2023/11/06 04:48:47;;;;;;;12.77;3.27;;;9.00;99.90;;;;;;5088322;28;20215;-63
2023/11/06 04:51:16;;;;;;;10.80;3.30;;;9.00;99.90;;;;;;5084689;28;20717;-64
2023/11/06 04:53:44;;;;;;;16.63;3.27;;;9.00;99.90;;;;;;5082980;28;21092;-63
2023/11/06 04:56:12;;;;;;;12.50;2.90;;;8.90;99.90;;;;;;5082217;28;20224;-63
2023/11/06 04:58:43;;;;;;;20.57;3.30;;;8.90;99.90;;;;;;5087967;28;20207;-63
2023/11/06 05:01:11;;;;;;;9.80;2.70;;;8.90;99.90;;;;;;5082542;28;20180;-63
2023/11/06 05:03:40;;;;;;;21.77;3.53;;;8.90;99.90;;;;;;5083465;28;20255;-63
2023/11/06 05:06:09;;;;;;;16.77;3.20;;;8.90;99.90;;;;;;5081964;28;20312;-63
2023/11/06 05:08:37;;;;;;;14.77;3.03;;;8.90;99.90;;;;;;5083063;28;20212;-63
2023/11/06 05:11:06;;;;;;;12.20;3.10;;;8.90;99.90;;;;;;5082958;28;20214;-63
2023/11/06 05:13:34;;;;;;;17.40;3.20;;;8.90;99.90;;;;;;5084150;28;20202;-64
2023/11/06 05:16:04;;;;;;;19.97;3.07;;;8.80;99.90;;;;;;5081636;28;20226;-63
2023/11/06 05:18:32;;;;;;;20.03;3.43;;;8.90;99.90;;;;;;5084394;28;20222;-63
2023/11/06 05:21:01;;;;;;;13.23;2.87;;;8.90;99.90;;;;;;5089338;28;20226;-64
2023/11/06 05:23:29;;;;;;;9.37;2.77;;;9.00;99.90;;;;;;5081535;28;20223;-63
2023/11/06 05:25:57;;;;;;;11.23;3.07;;;9.00;99.90;;;;;;5083157;28;20223;-63
2023/11/06 05:28:25;;;;;;;9.30;3.10;;;9.10;99.90;;;;;;5084117;28;20197;-63
2023/11/06 05:30:54;;;;;;;12.63;3.00;;;9.00;99.90;;;;;;5079656;28;20227;-63
2023/11/06 05:33:23;;;;;;;15.43;3.60;;;9.10;99.90;;;;;;5084043;28;20298;-63
2023/11/06 05:35:52;;;;;;;15.93;3.33;;;9.10;99.90;;;;;;5086082;28;20559;-63
2023/11/06 05:38:20;;;;;;;15.77;3.30;;;9.10;99.90;;;;;;5086652;28;20215;-63
2023/11/06 05:40:49;;;;;;;15.23;3.10;;;9.00;99.90;;;;;;5088135;28;20217;-63
2023/11/06 05:43:17;;;;;;;21.83;3.37;;;9.00;99.90;;;;;;5085129;28;20233;-63
2023/11/06 05:45:45;;;;;;;17.90;3.60;;;8.90;99.90;;;;;;5085595;28;20617;-63
2023/11/06 05:48:13;;;;;;;17.60;2.93;;;8.80;99.90;;;;;;5080943;28;20216;-63
2023/11/06 05:50:43;;;;;;;21.03;3.53;;;8.80;99.90;;;;;;5081865;28;20219;-63
2023/11/06 05:53:11;;;;;;;16.77;3.07;;;8.80;99.90;;;;;;5080826;28;20217;-63
2023/11/06 05:55:40;;;;;;;12.67;2.90;;;8.70;99.90;;;;;;5086800;28;20562;-63
2023/11/06 05:58:08;;;;;;;18.63;3.77;;;8.70;99.90;;;;;;5084880;28;20214;-63
2023/11/06 06:00:38;;;;;;;14.63;2.87;;;8.70;99.90;;;;;;5084254;28;20220;-63
2023/11/06 06:03:06;;;;;;;10.20;2.70;;;8.70;99.90;;;;;;5082131;28;20219;-63
2023/11/06 06:05:34;;;;;;;14.07;2.80;;;8.80;99.90;;;;;;5080430;28;20212;-63
2023/11/06 06:08:04;;;;;;;14.47;2.87;;;8.80;99.90;;;;;;5081953;28;20635;-63
2023/11/06 06:10:33;;;;;;;11.93;3.00;;;8.90;99.90;;;;;;5086320;28;20249;-63
2023/11/06 06:13:01;;;;;;;15.20;3.17;;;8.90;99.90;;;;;;5087996;28;20563;-63
2023/11/06 06:15:29;;;;;;;15.03;2.47;;;8.90;99.90;;;;;;5065185;28;20218;-63
2023/11/06 06:17:57;;;;;;;11.33;2.67;;;8.80;99.90;;;;;;5062595;28;20229;-63
2023/11/06 06:20:26;;;;;;;12.63;2.83;;;8.80;99.90;;;;;;5048428;28;20226;-63
2023/11/06 06:22:54;;;;;;;12.53;2.90;;;8.80;99.90;;;;;;5061574;28;20184;-63
2023/11/06 06:25:24;;;;;;;14.13;2.83;;;8.80;99.90;;;;;;5063925;28;20192;-63
2023/11/06 06:27:52;;;;;;;10.47;2.90;;;8.80;99.90;;;;;;5062837;28;20216;-63
2023/11/06 06:30:21;;;;;;;12.53;2.97;;;8.80;99.90;;;;;;5062142;28;20572;-63
2023/11/06 06:32:49;;;;;;;18.33;3.37;;;8.80;99.90;;;;;;5061720;28;20314;-63
2023/11/06 06:35:17;;;;;;;13.87;2.90;;;8.80;99.90;;;;;;5058845;28;20255;-63
2023/11/06 06:37:46;;;;;;;9.73;2.13;;;8.80;99.90;;;;;;5063396;28;20332;-63
2023/11/06 06:40:14;;;;;;;14.47;2.77;;;8.80;99.90;;;;;;5060761;28;20198;-63
2023/11/06 06:42:44;;;;;;;10.23;2.60;;;8.70;99.90;;;;;;5058653;28;20225;-63
2023/11/06 06:45:12;;;;;;;11.43;3.00;;;8.70;99.90;;;;;;5061171;28;20653;-63
2023/11/06 06:47:40;;;;;;;15.07;2.90;;;8.70;99.90;;;;;;5061329;28;20220;-63
2023/11/06 06:50:09;;;;;;;17.17;2.40;;;8.70;99.90;;;;;;5066004;28;20306;-63
2023/11/06 06:52:38;;;;;;;18.40;3.30;;;8.70;99.90;;;;;;5062992;28;20192;-62
2023/11/06 06:55:07;;;;;;;16.70;2.77;;;8.70;99.90;;;;;;5059500;28;20188;-63
2023/11/06 06:57:35;;;;;;;16.23;3.20;;;8.70;99.90;;;;;;5057382;28;20251;-63
2023/11/06 07:00:08;;;;;;;10.60;2.67;;;8.80;99.90;;;;;;5059963;28;20231;-63
2023/11/06 07:02:36;;;;;;;20.03;3.23;;;8.70;99.90;;;;;;5055447;28;20248;-63
2023/11/06 07:05:05;;;;;;;13.37;2.93;;;8.80;99.90;;;;;;5064262;28;20315;-63
2023/11/06 07:07:34;;;;;;;11.93;2.93;;;8.80;99.90;;;;;;5042952;28;20220;-63
2023/11/06 07:10:02;;;;;;;14.77;2.60;;;8.80;99.90;;;;;;5076936;28;20230;-63
2023/11/06 07:12:31;;;;;;;10.87;2.40;;;8.90;99.90;;;;;;5074962;28;20269;-63
2023/11/06 07:15:00;;;;;;;9.93;2.67;;;8.90;99.90;;;;;;5071168;28;20211;-63
2023/11/06 07:17:30;;;;;;;13.33;2.93;;;8.90;99.90;;;;;;5082510;28;20226;-63
2023/11/06 07:19:58;;;;;;;14.73;2.80;;;8.90;99.90;;;;;;5079103;28;20219;-63
2023/11/06 07:22:26;;;;;;;17.93;2.87;;;8.90;99.90;;;;;;5082220;28;20184;-63
2023/11/06 07:24:55;;;;;;;11.03;2.70;;;8.80;99.90;;;;;;5076647;28;20326;-63
2023/11/06 07:27:24;;;;;;;20.93;3.53;;;8.80;99.90;;;;;;5076251;28;20693;-63
2023/11/06 07:29:53;;;;;;;18.07;3.17;;;8.80;99.90;;;;;;5070384;28;20228;-63
2023/11/06 07:32:22;;;;;;;14.37;3.13;;;8.70;99.90;;;;;;5055195;28;20215;-63
2023/11/06 07:34:51;;;;;;;16.57;2.70;;;8.70;99.90;;;;;;5059594;28;20192;-63
2023/11/06 07:37:19;;;;;;;15.83;3.23;;;8.70;99.90;;;;;;5060796;28;20236;-63
2023/11/06 07:39:48;;;;;;;10.97;2.80;;;8.70;99.90;;;;;;5056527;28;20574;-63
2023/11/06 07:42:16;;;;;;;17.70;3.27;;;8.80;99.90;;;;;;5060031;28;20566;-63
2023/11/06 07:44:44;;;;;;;11.83;2.90;;;8.80;99.90;;;;;;5058249;28;20230;-63
2023/11/06 07:47:12;;;;;;;13.83;2.67;;;8.80;99.90;;;;;;5059122;28;20220;-63
2023/11/06 07:49:41;;;;;;;15.17;2.80;;;8.90;99.90;;;;;;5055613;28;20219;-61
2023/11/06 07:52:11;;;;;;;8.40;2.37;;;8.90;99.90;;;;;;5064006;28;20195;-63
2023/11/06 07:54:40;;;;;;;14.50;2.77;;;9.00;99.90;;;;;;5062257;28;20710;-63
2023/11/06 07:57:11;;;;;;;20.43;3.07;;;9.00;99.90;;;;;;5061319;28;20223;-63
2023/11/06 07:59:41;;;;;;;16.23;2.67;;;9.00;99.90;;;;;;5061669;28;20212;-63
2023/11/06 08:02:10;;;;;;;11.70;2.87;;;9.10;99.90;;;;;;5057557;28;20285;-63
2023/11/06 08:04:39;;;;;;;17.47;3.63;;;9.10;99.90;;;;;;5058873;28;20236;-62
2023/11/06 08:07:08;;;;;;;15.90;3.30;;;9.20;99.90;;;;;;5055933;28;20193;-63
2023/11/06 08:09:38;;;;;;;12.23;2.70;;;9.30;99.90;;;;;;5061622;28;20214;-63
2023/11/06 08:12:09;;;;;;;10.90;3.03;;;9.40;99.90;;;;;;5058198;28;20223;-63
2023/11/06 08:14:37;;;;;;;7.30;2.53;;;9.50;99.90;;;;;;5062492;28;20227;-63
2023/11/06 08:17:06;;;;;;;13.90;2.90;;;9.60;99.90;;;;;;5061778;28;20227;-63
2023/11/06 08:19:38;;;;;;;14.07;2.60;;;9.60;99.90;;;;;;5060600;28;20196;-63
2023/11/06 08:22:09;;;;;;;11.20;2.93;;;9.70;99.90;;;;;;5081897;28;20277;-63
2023/11/06 08:24:39;;;;;;;14.50;3.20;;;9.70;99.90;;;;;;5079137;28;20215;-63
2023/11/06 08:27:08;;;;;;;15.23;2.90;;;9.70;99.90;;;;;;5084228;28;20217;-63
2023/11/06 08:29:41;;;;;;;11.70;3.07;;;9.80;99.90;;;;;;5081233;28;20552;-63
2023/11/06 08:32:10;;;;;;;13.43;4.23;;;9.80;99.90;;;;;;5076732;28;20318;-63
2023/11/06 08:34:41;;;;;;;13.30;3.40;;;9.90;99.90;;;;;;5079779;28;20270;-62
2023/11/06 08:37:11;;;;;;;10.00;3.80;;;9.90;99.90;;;;;;5062380;28;20277;-63
2023/11/06 08:39:43;;;;;;;15.80;4.07;;;10.00;99.90;;;;;;5079434;28;20215;-63
2023/11/06 08:42:12;;;;;;;12.70;3.23;;;10.10;99.90;;;;;;5083946;28;20725;-63
2023/11/06 08:44:42;;;;;;;12.07;2.93;;;10.20;99.90;;;;;;5081326;28;20598;-63
2023/11/06 08:47:10;;;;;;;20.60;3.17;;;10.30;99.90;;;;;;5066412;28;20233;-63
2023/11/06 08:49:39;;;;;;;10.00;2.60;;;10.30;99.90;;;;;;5077163;28;20203;-63
2023/11/06 08:52:07;;;;;;;11.83;2.57;;;10.40;99.90;;;;;;5080806;28;20626;-63
2023/11/06 08:54:37;;;;;;;10.93;2.70;;;10.50;99.90;;;;;;5084087;28;20220;-63
2023/11/06 08:57:07;;;;;;;14.60;2.77;;;10.60;99.90;;;;;;5081522;28;20227;-64
2023/11/06 08:59:36;;;;;;;13.73;2.73;;;10.70;99.90;;;;;;5080350;28;20222;-63
2023/11/06 09:02:04;;;;;;;12.40;3.40;;;10.90;99.90;;;;;;5084845;28;20264;-63
2023/11/06 09:04:33;;;;;;;10.43;2.40;;;10.90;99.90;;;;;;5086204;28;20235;-63
2023/11/06 09:07:03;;;;;;;11.63;2.57;;;11.00;99.90;;;;;;5085737;28;20222;-63
2023/11/06 09:09:31;;;;;;;9.50;3.00;;;11.00;99.90;;;;;;5081349;28;20678;-63
2023/11/06 09:11:59;;;;;;;9.23;2.50;;;11.00;99.90;;;;;;5082021;28;20226;-63
2023/11/06 09:14:29;;;;;;;12.90;2.83;;;11.10;99.90;;;;;;5086346;28;20755;-63
2023/11/06 09:16:58;;;;;;;9.27;3.13;;;11.20;99.90;;;;;;5082104;28;20220;-63
2023/11/06 09:19:27;;;;;;;12.23;3.00;;;11.40;99.90;;;;;;5082761;28;20207;-63
2023/11/06 09:21:55;;;;;;;10.03;2.80;;;11.50;99.90;;;;;;5084256;28;20342;-63
2023/11/06 09:24:23;;;;;;;12.57;2.83;;;11.60;99.90;;;;;;5081842;28;20223;-63
2023/11/06 09:26:51;;;;;;;14.63;2.67;;;11.60;99.90;;;;;;5085564;28;20462;-63
2023/11/06 09:29:20;;;;;;;9.57;2.67;;;11.70;99.90;;;;;;5083774;28;20220;-63
2023/11/06 09:31:50;;;;;;;8.20;2.50;;;12.00;99.90;;;;;;5085292;28;20188;-63
2023/11/06 09:34:18;;;;;;;12.63;2.70;;;12.20;99.90;;;;;;5083222;28;20192;-63
2023/11/06 09:36:46;;;;;;;8.03;2.10;;;12.30;89.70;;;;;;5084398;28;20227;-63
2023/11/06 09:39:17;;;;;;;6.33;2.50;;;12.40;92.60;;;;;;5083814;28;20238;-63
2023/11/06 09:41:45;;;;;;;12.53;2.50;;;12.60;94.60;;;;;;5080337;28;20227;-63
2023/11/06 09:44:13;;;;;;;12.67;2.73;;;12.70;81.30;;;;;;5080269;28;20226;-63
2023/11/06 09:46:42;;;;;;;9.37;2.13;;;12.80;80.20;;;;;;5082428;28;20269;-63
2023/11/06 09:49:17;;;;;;;6.57;2.40;;;12.80;60.10;;;;;;5082309;28;20203;-63
2023/11/06 09:51:52;;;;;;;5.90;2.10;;;12.80;68.00;;;;;;5081626;28;20555;-63
2023/11/06 09:54:22;;;;;;;10.67;3.10;;;12.70;60.20;;;;;;5083348;28;20223;-63
2023/11/06 09:56:50;;;;;;;5.73;2.23;;;12.70;61.20;;;;;;5083631;28;20224;-63
2023/11/06 09:59:18;;;;;;;8.13;2.50;;;12.60;72.80;;;;;;5085419;28;20869;-63
2023/11/06 10:01:47;;;;;;;8.67;2.43;;;12.70;65.00;;;;;;5083037;28;20196;-63
2023/11/06 10:04:16;;;;;;;7.90;2.43;;;12.90;65.60;;;;;;5083179;28;20239;-63
2023/11/06 10:06:45;;;;;;;13.60;2.57;;;12.80;60.10;;;;;;5081304;28;20701;-63
2023/11/06 10:09:24;;;;;;;11.40;2.60;;;12.80;70.30;;;;;;5080984;28;20215;-63
2023/11/06 10:11:57;;;;;;;10.93;2.47;;;12.80;61.30;;;;;;5081074;28;20228;-63
2023/11/06 10:14:37;;;;;;;8.97;2.40;;;12.70;63.40;;;;;;5081559;28;20218;-63
2023/11/06 10:17:06;;;;;;;8.00;2.20;;;12.80;65.50;;;;;;5079733;28;20627;-63
2023/11/06 10:19:36;;;;;;;9.47;2.53;;;12.80;57.00;;;;;;5081005;28;20226;-63
2023/11/06 10:22:14;;;;;;;10.03;2.20;;;12.70;66.70;;;;;;5074027;28;20296;-63
2023/11/06 10:24:49;;;;;;;8.77;2.57;;;12.80;76.10;;;;;;5081477;28;20776;-63
2023/11/06 10:27:26;;;;;;;5.53;2.20;;;12.80;74.80;;;;;;5082317;28;20854;-63
2023/11/06 10:30:04;;;;;;;8.13;2.20;;;12.90;62.20;;;;;;5082856;28;20303;-63
2023/11/06 10:32:33;;;;;;;6.40;2.53;;;13.00;49.40;;;;;;5081711;28;20216;-63
2023/11/06 10:35:12;;;;;;;9.13;2.30;;;12.90;67.20;;;;;;5078878;28;20216;-63
2023/11/06 10:37:41;;;;;;;9.17;2.40;;;13.00;71.90;;;;;;5080664;28;20211;-62
2023/11/06 10:40:13;;;;;;;11.87;2.77;;;12.90;67.00;;;;;;5084402;28;20239;-63
2023/11/06 10:42:43;;;;;;;10.33;2.80;;;12.80;65.80;;;;;;5082912;28;20318;-63
2023/11/06 10:45:14;;;;;;;9.77;2.37;;;12.90;64.40;;;;;;5083938;28;20242;-63
2023/11/06 10:47:47;;;;;;;11.00;2.40;;;13.00;61.90;;;;;;5081292;28;20223;-64
2023/11/06 10:50:20;;;;;;;7.60;2.40;;;13.00;56.70;;;;;;5081987;28;20222;-64
2023/11/06 10:52:53;;;;;;;10.30;2.33;;;12.90;53.50;;;;;;5083669;28;20207;-63
2023/11/06 10:55:23;;;;;;;9.67;2.53;;;13.00;43.30;;;;;;5083088;28;20206;-63
2023/11/06 10:58:00;;;;;;;5.83;2.33;;;12.80;49.00;;;;;;5083034;28;20213;-63
2023/11/06 11:00:31;;;;;;;12.03;2.40;;;12.70;60.80;;;;;;5081775;28;20216;-64
2023/11/06 11:03:01;;;;;;;11.87;2.47;;;12.60;67.00;;;;;;5079352;28;20220;-64
2023/11/06 11:05:33;;;;;;;7.23;2.33;;;12.60;59.60;;;;;;5075098;28;20226;-63
2023/11/06 11:08:05;;;;;;;10.33;2.70;;;12.60;68.70;;;;;;5078509;28;20674;-64
2023/11/06 11:10:34;;;;;;;7.53;2.67;;;12.60;69.10;;;;;;5060690;28;20188;-64
2023/11/06 11:13:03;;;;;;;10.17;2.33;;;12.50;62.00;;;;;;5061236;28;20682;-63
2023/11/06 11:15:34;;;;;;;10.40;2.73;;;12.40;68.60;;;;;;5058883;28;20618;-64
2023/11/06 11:18:04;;;;;;;10.17;2.60;;;12.40;68.10;;;;;;5068047;28;20227;-63
2023/11/06 11:20:53;;;;;;;8.73;3.13;;;12.30;64.60;;;;;;5081804;28;20228;-63
2023/11/06 11:23:38;;;;;;;10.90;2.93;;;12.30;74.50;;;;;;5081676;28;20219;-63
2023/11/06 11:26:10;;;;;;;6.90;2.43;;;12.10;63.70;;;;;;5082103;28;20735;-63
2023/11/06 11:28:53;;;;;;;9.73;2.60;;;12.00;73.30;;;;;;5084859;28;20273;-63
2023/11/06 11:31:35;;;;;;;7.27;2.60;;;12.10;90.10;;;;;;5081703;28;20577;-63
2023/11/06 11:34:05;;;;;;;6.97;2.57;;;12.10;89.50;;;;;;5081848;28;20900;-64
2023/11/06 11:36:38;;;;;;;15.00;3.17;;;12.00;91.10;;;;;;5085015;28;20265;-63
2023/11/06 11:39:13;;;;;;;14.07;2.43;;;12.00;97.10;;;;;;5083093;28;20227;-64
2023/11/06 11:42:22;;;;;;;7.03;2.17;;;12.00;99.90;;;;;;5073163;28;20322;-64
2023/11/06 11:44:51;;;;;;;9.47;2.70;;;11.80;99.90;;;;;;5064030;28;20622;-63
2023/11/06 11:47:19;;;;;;;7.20;2.20;;;11.70;99.90;;;;;;5079408;28;20268;-64
2023/11/06 11:49:49;;;;;;;10.70;2.60;;;11.70;99.90;;;;;;5082877;28;20679;-63
2023/11/06 11:52:43;;;;;;;5.97;2.17;;;11.70;99.90;;;;;;5082911;28;20286;-64
2023/11/06 11:55:29;;;;;;;9.67;2.47;;;11.60;99.90;;;;;;5059579;28;20226;-64
2023/11/06 11:58:06;;;;;;;7.73;2.33;;;11.50;99.90;;;;;;5077461;28;20219;-63
2023/11/06 12:00:36;;;;;;;7.67;2.33;;;11.40;99.90;;;;;;5082033;28;20277;-63
2023/11/06 12:03:08;;;;;;;8.20;2.10;;;11.40;99.90;;;;;;5081860;28;20551;-63
2023/11/06 12:05:38;;;;;;;9.47;2.37;;;11.40;99.90;;;;;;5080114;28;20240;-64
2023/11/06 12:08:19;;;;;;;7.83;2.17;;;11.50;99.90;;;;;;5081847;28;20218;-63
2023/11/06 12:10:50;;;;;;;5.20;1.90;;;11.40;99.90;;;;;;5076607;28;20236;-63
2023/11/06 12:13:22;;;;;;;10.37;2.13;;;11.40;99.90;;;;;;5079396;28;20203;-64
2023/11/06 12:15:51;;;;;;;4.53;2.23;;;11.50;99.90;;;;;;5078166;28;20224;-63
2023/11/06 12:18:22;;;;;;;8.63;2.70;;;11.50;99.90;;;;;;5082447;28;20291;-64
2023/11/06 12:20:56;;;;;;;8.97;2.60;;;11.50;99.90;;;;;;5080937;28;20601;-64
2023/11/06 12:23:32;;;;;;;6.03;2.13;;;11.60;99.90;;;;;;5081007;28;20226;-64
2023/11/06 12:26:08;;;;;;;4.63;1.90;;;11.60;99.90;;;;;;5079247;28;20219;-65
2023/11/06 12:28:42;;;;;;;4.90;1.97;;;11.70;99.90;;;;;;5081084;28;20669;-63
2023/11/06 12:31:11;;;;;;;5.70;1.80;;;11.80;99.90;;;;;;5076153;28;20190;-64
2023/11/06 12:33:40;;;;;;;6.20;1.90;;;11.90;99.90;;;;;;5081156;28;20216;-64
2023/11/06 12:36:25;;;;;;;6.83;2.10;;;11.90;99.90;;;;;;5085691;28;20227;-63
2023/11/06 12:38:57;;;;;;;5.03;2.23;;;12.00;99.90;;;;;;5082011;28;20220;-67
2023/11/06 12:41:29;;;;;;;5.33;1.93;;;12.00;99.90;;;;;;5082323;28;20241;-64
2023/11/06 12:44:00;;;;;;;6.23;1.90;;;11.90;99.90;;;;;;5083261;28;20255;-64
2023/11/06 12:46:42;;;;;;;4.63;1.63;;;11.80;99.90;;;;;;5083955;28;20498;-64
2023/11/06 12:49:47;;;;;;;4.47;1.80;;;11.60;99.90;;;;;;5084956;28;20285;-64
2023/11/06 12:52:18;;;;;;;4.67;1.93;;;11.60;99.90;;;;;;5085002;28;20226;-64
2023/11/06 12:54:49;;;;;;;9.70;2.07;;;11.50;99.90;;;;;;5087284;28;20287;-64
2023/11/06 12:57:18;;;;;;;9.20;2.17;;;11.30;99.90;;;;;;5085615;28;20227;-64
2023/11/06 12:59:47;;;;;;;9.67;2.20;;;11.30;99.90;;;;;;5085807;28;20219;-64
2023/11/06 13:02:15;;;;;;;7.50;1.80;;;11.30;99.90;;;;;;5084871;28;20221;-63